الصفحة الرئيسية
METAR-TAF:

METAR-TAF

مطار :

أنكوراج, ألاسكا, الولايات المتحدة

دائرة عرض: 61-11N, خط طول: 149-58W, ارتفاع: 22 متر

مراقبة الطقس الحالي

تاريخ ووقت الإصدار 26 دقيقة قبل الساعة 16:53UTC
ريح 8 عقدة من الشمال/الشمال الشرقي
درجة الحرارة -9°درجة مئوية
الرطوبة 62%
ضغط 1016 hPa
الرؤية: 16.1 كم
ملبد بالغيوم على ارتفاع 7500 قدم

METAR: PALH 041653Z AUTO 02008KT 10SM OVC075 M09/M15 A3000 RMK AO2 SLP160 T10891150 TSNO

زمن: 08:19 (17:19 UTC)


TAF: مفقودة

أرصاد الطقس والتوقعات من أكثر من 4000 مطار (تقارير الطقس للمطار METAR والتنبؤ بالطقس بالمطارTAF).

المحطات المتاحة هي النقط الصفراء والحمراء على الخريطة.

حرك المؤشر فوق النقطة لمعرفة اسم المحطة.

ثم انقر لمعرفة أرصاد وتوقعات الطقس.

لتغيير الخارطة: اضغط على الأزرار الخضراء مع رمز الصليب الأسود للتكبير. على الزر الأخضر مع شرطة للتصغير، أو على الأسهم الخضراء للخرائط المجاورة.


METAR-TAF: